sensor_id;sensor_type;location;lat;lon;timestamp;P1;durP1;ratioP1;P2;durP2;ratioP2
3733;SDS011;1882;52.256;8.874;2024-03-17T00:02:21;8.93;;;4.83;;
3733;SDS011;1882;52.256;8.874;2024-03-17T00:04:47;9.07;;;4.97;;
3733;SDS011;1882;52.256;8.874;2024-03-17T00:07:13;9.90;;;5.00;;
3733;SDS011;1882;52.256;8.874;2024-03-17T00:09:40;10.37;;;4.13;;
3733;SDS011;1882;52.256;8.874;2024-03-17T00:12:07;8.33;;;4.00;;
3733;SDS011;1882;52.256;8.874;2024-03-17T00:14:34;8.73;;;3.93;;
3733;SDS011;1882;52.256;8.874;2024-03-17T00:17:00;9.33;;;4.57;;
3733;SDS011;1882;52.256;8.874;2024-03-17T00:19:26;9.50;;;4.50;;
3733;SDS011;1882;52.256;8.874;2024-03-17T00:21:52;10.40;;;4.20;;
3733;SDS011;1882;52.256;8.874;2024-03-17T00:24:21;8.20;;;3.93;;
3733;SDS011;1882;52.256;8.874;2024-03-17T00:26:47;11.10;;;4.57;;
3733;SDS011;1882;52.256;8.874;2024-03-17T00:29:16;9.80;;;4.40;;
3733;SDS011;1882;52.256;8.874;2024-03-17T00:31:42;8.47;;;4.03;;
3733;SDS011;1882;52.256;8.874;2024-03-17T00:34:08;9.90;;;4.17;;
3733;SDS011;1882;52.256;8.874;2024-03-17T00:36:34;10.70;;;3.90;;
3733;SDS011;1882;52.256;8.874;2024-03-17T00:39:00;8.30;;;4.10;;
3733;SDS011;1882;52.256;8.874;2024-03-17T00:41:26;10.27;;;4.40;;
3733;SDS011;1882;52.256;8.874;2024-03-17T00:43:52;7.93;;;4.30;;
3733;SDS011;1882;52.256;8.874;2024-03-17T00:46:20;8.80;;;5.33;;
3733;SDS011;1882;52.256;8.874;2024-03-17T00:48:47;8.80;;;4.30;;
3733;SDS011;1882;52.256;8.874;2024-03-17T00:51:14;11.23;;;4.63;;
3733;SDS011;1882;52.256;8.874;2024-03-17T00:53:40;6.77;;;3.90;;
3733;SDS011;1882;52.256;8.874;2024-03-17T00:56:06;14.03;;;4.00;;
3733;SDS011;1882;52.256;8.874;2024-03-17T00:58:32;7.63;;;3.50;;
3733;SDS011;1882;52.256;8.874;2024-03-17T01:00:58;6.73;;;3.83;;
3733;SDS011;1882;52.256;8.874;2024-03-17T01:03:24;11.43;;;4.07;;
3733;SDS011;1882;52.256;8.874;2024-03-17T01:05:50;9.23;;;3.97;;
3733;SDS011;1882;52.256;8.874;2024-03-17T01:08:18;11.37;;;4.73;;
3733;SDS011;1882;52.256;8.874;2024-03-17T01:10:45;11.10;;;4.20;;
3733;SDS011;1882;52.256;8.874;2024-03-17T01:13:15;10.53;;;4.30;;
3733;SDS011;1882;52.256;8.874;2024-03-17T01:15:41;7.50;;;4.10;;
3733;SDS011;1882;52.256;8.874;2024-03-17T01:18:08;9.70;;;3.70;;
3733;SDS011;1882;52.256;8.874;2024-03-17T01:20:34;8.30;;;4.00;;
3733;SDS011;1882;52.256;8.874;2024-03-17T01:23:01;15.00;;;4.27;;
3733;SDS011;1882;52.256;8.874;2024-03-17T01:25:27;8.80;;;4.10;;
3733;SDS011;1882;52.256;8.874;2024-03-17T01:27:55;7.57;;;4.30;;
3733;SDS011;1882;52.256;8.874;2024-03-17T01:30:21;9.83;;;4.13;;
3733;SDS011;1882;52.256;8.874;2024-03-17T01:32:48;9.10;;;4.33;;
3733;SDS011;1882;52.256;8.874;2024-03-17T01:35:14;15.40;;;4.80;;
3733;SDS011;1882;52.256;8.874;2024-03-17T01:37:41;9.13;;;4.00;;
3733;SDS011;1882;52.256;8.874;2024-03-17T01:40:07;9.93;;;3.90;;
3733;SDS011;1882;52.256;8.874;2024-03-17T01:42:40;10.73;;;4.70;;
3733;SDS011;1882;52.256;8.874;2024-03-17T01:45:29;12.63;;;5.27;;
3733;SDS011;1882;52.256;8.874;2024-03-17T01:47:59;10.53;;;4.17;;
3733;SDS011;1882;52.256;8.874;2024-03-17T01:50:28;10.37;;;3.97;;
3733;SDS011;1882;52.256;8.874;2024-03-17T01:52:56;7.73;;;4.40;;
3733;SDS011;1882;52.256;8.874;2024-03-17T01:55:25;12.90;;;5.10;;
3733;SDS011;1882;52.256;8.874;2024-03-17T01:57:53;11.30;;;5.17;;
3733;SDS011;1882;52.256;8.874;2024-03-17T02:00:19;11.80;;;4.53;;
3733;SDS011;1882;52.256;8.874;2024-03-17T02:02:45;10.37;;;4.63;;
3733;SDS011;1882;52.256;8.874;2024-03-17T02:05:11;15.90;;;5.30;;
3733;SDS011;1882;52.256;8.874;2024-03-17T02:07:38;9.07;;;4.57;;
3733;SDS011;1882;52.256;8.874;2024-03-17T02:10:05;9.67;;;4.73;;
3733;SDS011;1882;52.256;8.874;2024-03-17T02:12:33;9.60;;;4.70;;
3733;SDS011;1882;52.256;8.874;2024-03-17T02:15:01;12.13;;;4.40;;
3733;SDS011;1882;52.256;8.874;2024-03-17T02:17:31;14.20;;;4.87;;
3733;SDS011;1882;52.256;8.874;2024-03-17T02:19:57;15.33;;;4.80;;
3733;SDS011;1882;52.256;8.874;2024-03-17T02:22:23;7.90;;;4.87;;
3733;SDS011;1882;52.256;8.874;2024-03-17T02:24:49;10.50;;;4.53;;
3733;SDS011;1882;52.256;8.874;2024-03-17T02:27:15;14.17;;;4.60;;
3733;SDS011;1882;52.256;8.874;2024-03-17T02:29:41;9.90;;;4.30;;
3733;SDS011;1882;52.256;8.874;2024-03-17T02:32:07;11.00;;;4.37;;
3733;SDS011;1882;52.256;8.874;2024-03-17T02:34:34;10.33;;;3.90;;
3733;SDS011;1882;52.256;8.874;2024-03-17T02:37:00;11.23;;;4.10;;
3733;SDS011;1882;52.256;8.874;2024-03-17T02:39:28;11.10;;;4.43;;
3733;SDS011;1882;52.256;8.874;2024-03-17T02:42:04;13.47;;;4.73;;
3733;SDS011;1882;52.256;8.874;2024-03-17T02:44:35;12.47;;;4.40;;
3733;SDS011;1882;52.256;8.874;2024-03-17T02:47:03;10.07;;;4.80;;
3733;SDS011;1882;52.256;8.874;2024-03-17T02:49:30;12.17;;;4.67;;
3733;SDS011;1882;52.256;8.874;2024-03-17T02:52:05;10.77;;;5.33;;
3733;SDS011;1882;52.256;8.874;2024-03-17T02:54:35;11.37;;;6.63;;
3733;SDS011;1882;52.256;8.874;2024-03-17T02:57:02;17.70;;;8.23;;
3733;SDS011;1882;52.256;8.874;2024-03-17T02:59:29;13.10;;;8.20;;
3733;SDS011;1882;52.256;8.874;2024-03-17T03:01:55;20.43;;;12.10;;
3733;SDS011;1882;52.256;8.874;2024-03-17T03:04:21;14.47;;;9.27;;
3733;SDS011;1882;52.256;8.874;2024-03-17T03:06:47;18.00;;;9.57;;
3733;SDS011;1882;52.256;8.874;2024-03-17T03:09:13;13.43;;;8.73;;
3733;SDS011;1882;52.256;8.874;2024-03-17T03:11:39;19.00;;;9.50;;
3733;SDS011;1882;52.256;8.874;2024-03-17T03:14:06;13.43;;;8.40;;
3733;SDS011;1882;52.256;8.874;2024-03-17T03:16:33;11.97;;;7.80;;
3733;SDS011;1882;52.256;8.874;2024-03-17T03:18:59;15.30;;;7.43;;
3733;SDS011;1882;52.256;8.874;2024-03-17T03:21:25;16.37;;;8.27;;
3733;SDS011;1882;52.256;8.874;2024-03-17T03:23:51;21.07;;;10.17;;
3733;SDS011;1882;52.256;8.874;2024-03-17T03:26:17;16.77;;;8.70;;
3733;SDS011;1882;52.256;8.874;2024-03-17T03:28:43;16.67;;;8.93;;
3733;SDS011;1882;52.256;8.874;2024-03-17T03:31:13;13.17;;;8.20;;
3733;SDS011;1882;52.256;8.874;2024-03-17T03:33:39;14.63;;;8.17;;
3733;SDS011;1882;52.256;8.874;2024-03-17T03:36:07;10.30;;;6.87;;
3733;SDS011;1882;52.256;8.874;2024-03-17T03:38:37;14.13;;;7.23;;
3733;SDS011;1882;52.256;8.874;2024-03-17T03:41:09;12.80;;;7.20;;
3733;SDS011;1882;52.256;8.874;2024-03-17T03:43:37;12.03;;;7.60;;
3733;SDS011;1882;52.256;8.874;2024-03-17T03:46:03;9.80;;;6.90;;
3733;SDS011;1882;52.256;8.874;2024-03-17T03:48:29;16.80;;;8.10;;
3733;SDS011;1882;52.256;8.874;2024-03-17T03:50:55;12.70;;;7.90;;
3733;SDS011;1882;52.256;8.874;2024-03-17T03:53:21;17.33;;;8.60;;
3733;SDS011;1882;52.256;8.874;2024-03-17T03:55:48;17.97;;;8.63;;
3733;SDS011;1882;52.256;8.874;2024-03-17T03:58:17;15.30;;;8.53;;
3733;SDS011;1882;52.256;8.874;2024-03-17T04:00:43;15.17;;;7.33;;
3733;SDS011;1882;52.256;8.874;2024-03-17T04:03:09;13.10;;;7.40;;
3733;SDS011;1882;52.256;8.874;2024-03-17T04:05:34;16.80;;;6.83;;
3733;SDS011;1882;52.256;8.874;2024-03-17T04:08:00;15.27;;;6.50;;
3733;SDS011;1882;52.256;8.874;2024-03-17T04:10:26;14.87;;;6.27;;
3733;SDS011;1882;52.256;8.874;2024-03-17T04:12:52;12.23;;;6.53;;
3733;SDS011;1882;52.256;8.874;2024-03-17T04:15:19;18.83;;;7.20;;
3733;SDS011;1882;52.256;8.874;2024-03-17T04:17:45;14.77;;;6.87;;
3733;SDS011;1882;52.256;8.874;2024-03-17T04:20:11;15.27;;;7.13;;
3733;SDS011;1882;52.256;8.874;2024-03-17T04:22:40;21.40;;;8.20;;
3733;SDS011;1882;52.256;8.874;2024-03-17T04:25:08;12.83;;;6.90;;
3733;SDS011;1882;52.256;8.874;2024-03-17T04:27:34;18.83;;;7.30;;
3733;SDS011;1882;52.256;8.874;2024-03-17T04:30:00;17.47;;;6.97;;
3733;SDS011;1882;52.256;8.874;2024-03-17T04:32:27;23.30;;;9.27;;
3733;SDS011;1882;52.256;8.874;2024-03-17T04:34:53;17.30;;;9.40;;
3733;SDS011;1882;52.256;8.874;2024-03-17T04:37:19;20.03;;;9.70;;
3733;SDS011;1882;52.256;8.874;2024-03-17T04:39:45;18.57;;;9.10;;
3733;SDS011;1882;52.256;8.874;2024-03-17T04:42:12;17.93;;;10.37;;
3733;SDS011;1882;52.256;8.874;2024-03-17T04:44:41;17.43;;;8.90;;
3733;SDS011;1882;52.256;8.874;2024-03-17T04:47:07;19.03;;;10.27;;
3733;SDS011;1882;52.256;8.874;2024-03-17T04:49:37;18.67;;;8.87;;
3733;SDS011;1882;52.256;8.874;2024-03-17T04:52:04;12.87;;;8.40;;
3733;SDS011;1882;52.256;8.874;2024-03-17T04:54:31;16.87;;;8.23;;
3733;SDS011;1882;52.256;8.874;2024-03-17T04:56:57;17.27;;;8.87;;
3733;SDS011;1882;52.256;8.874;2024-03-17T04:59:23;18.10;;;9.30;;
3733;SDS011;1882;52.256;8.874;2024-03-17T05:01:49;16.77;;;7.90;;
3733;SDS011;1882;52.256;8.874;2024-03-17T05:04:15;12.33;;;7.07;;
3733;SDS011;1882;52.256;8.874;2024-03-17T05:06:41;16.40;;;7.47;;
3733;SDS011;1882;52.256;8.874;2024-03-17T05:09:14;20.70;;;7.57;;
3733;SDS011;1882;52.256;8.874;2024-03-17T05:11:44;14.40;;;6.93;;
3733;SDS011;1882;52.256;8.874;2024-03-17T05:14:10;15.70;;;7.20;;
3733;SDS011;1882;52.256;8.874;2024-03-17T05:16:37;13.43;;;7.80;;
3733;SDS011;1882;52.256;8.874;2024-03-17T05:19:03;22.57;;;10.03;;
3733;SDS011;1882;52.256;8.874;2024-03-17T05:21:29;16.30;;;10.27;;
3733;SDS011;1882;52.256;8.874;2024-03-17T05:23:56;20.00;;;10.40;;
3733;SDS011;1882;52.256;8.874;2024-03-17T05:26:25;18.40;;;10.53;;
3733;SDS011;1882;52.256;8.874;2024-03-17T05:28:52;15.53;;;9.90;;
3733;SDS011;1882;52.256;8.874;2024-03-17T05:31:19;16.27;;;9.60;;
3733;SDS011;1882;52.256;8.874;2024-03-17T05:33:47;22.20;;;10.47;;
3733;SDS011;1882;52.256;8.874;2024-03-17T05:36:13;19.90;;;10.77;;
3733;SDS011;1882;52.256;8.874;2024-03-17T05:38:39;20.10;;;10.83;;
3733;SDS011;1882;52.256;8.874;2024-03-17T05:41:06;19.73;;;11.60;;
3733;SDS011;1882;52.256;8.874;2024-03-17T05:43:33;22.00;;;11.60;;
3733;SDS011;1882;52.256;8.874;2024-03-17T05:46:09;16.40;;;9.93;;
3733;SDS011;1882;52.256;8.874;2024-03-17T05:48:37;17.33;;;9.67;;
3733;SDS011;1882;52.256;8.874;2024-03-17T05:51:07;15.63;;;10.70;;
3733;SDS011;1882;52.256;8.874;2024-03-17T05:53:38;14.60;;;9.97;;
3733;SDS011;1882;52.256;8.874;2024-03-17T05:56:10;17.17;;;10.10;;
3733;SDS011;1882;52.256;8.874;2024-03-17T05:58:41;15.30;;;10.60;;
3733;SDS011;1882;52.256;8.874;2024-03-17T06:01:07;15.20;;;9.73;;
3733;SDS011;1882;52.256;8.874;2024-03-17T06:03:34;14.40;;;9.07;;
3733;SDS011;1882;52.256;8.874;2024-03-17T06:06:03;16.03;;;10.37;;
3733;SDS011;1882;52.256;8.874;2024-03-17T06:08:33;22.23;;;10.00;;
3733;SDS011;1882;52.256;8.874;2024-03-17T06:10:59;22.37;;;10.40;;
3733;SDS011;1882;52.256;8.874;2024-03-17T06:13:28;16.83;;;10.10;;
3733;SDS011;1882;52.256;8.874;2024-03-17T06:15:54;16.47;;;9.93;;
3733;SDS011;1882;52.256;8.874;2024-03-17T06:18:23;17.73;;;11.20;;
3733;SDS011;1882;52.256;8.874;2024-03-17T06:20:49;15.27;;;10.03;;
3733;SDS011;1882;52.256;8.874;2024-03-17T06:23:15;17.07;;;10.30;;
3733;SDS011;1882;52.256;8.874;2024-03-17T06:25:47;15.83;;;9.00;;
3733;SDS011;1882;52.256;8.874;2024-03-17T06:28:14;15.83;;;9.90;;
3733;SDS011;1882;52.256;8.874;2024-03-17T06:30:42;16.30;;;9.80;;
3733;SDS011;1882;52.256;8.874;2024-03-17T06:33:10;16.57;;;8.93;;
3733;SDS011;1882;52.256;8.874;2024-03-17T06:35:37;15.83;;;8.87;;
3733;SDS011;1882;52.256;8.874;2024-03-17T06:38:04;16.27;;;9.43;;
3733;SDS011;1882;52.256;8.874;2024-03-17T06:40:30;10.10;;;7.60;;
3733;SDS011;1882;52.256;8.874;2024-03-17T06:42:56;13.50;;;8.00;;
3733;SDS011;1882;52.256;8.874;2024-03-17T06:45:22;12.57;;;7.60;;
3733;SDS011;1882;52.256;8.874;2024-03-17T06:47:49;13.30;;;7.50;;
3733;SDS011;1882;52.256;8.874;2024-03-17T06:50:15;13.63;;;7.10;;
3733;SDS011;1882;52.256;8.874;2024-03-17T06:52:41;12.00;;;6.10;;
3733;SDS011;1882;52.256;8.874;2024-03-17T06:55:07;9.87;;;6.03;;
3733;SDS011;1882;52.256;8.874;2024-03-17T06:57:33;15.93;;;6.23;;
3733;SDS011;1882;52.256;8.874;2024-03-17T07:00:00;16.43;;;6.77;;
3733;SDS011;1882;52.256;8.874;2024-03-17T07:02:26;10.80;;;6.00;;
3733;SDS011;1882;52.256;8.874;2024-03-17T07:04:52;17.03;;;6.40;;
3733;SDS011;1882;52.256;8.874;2024-03-17T07:07:18;12.67;;;6.50;;
3733;SDS011;1882;52.256;8.874;2024-03-17T07:09:46;10.57;;;6.00;;
3733;SDS011;1882;52.256;8.874;2024-03-17T07:12:12;14.10;;;5.63;;
3733;SDS011;1882;52.256;8.874;2024-03-17T07:14:38;11.47;;;5.77;;
3733;SDS011;1882;52.256;8.874;2024-03-17T07:17:04;12.57;;;6.63;;
3733;SDS011;1882;52.256;8.874;2024-03-17T07:19:31;19.87;;;5.60;;
3733;SDS011;1882;52.256;8.874;2024-03-17T07:21:57;11.17;;;5.60;;
3733;SDS011;1882;52.256;8.874;2024-03-17T07:24:24;9.03;;;5.63;;
3733;SDS011;1882;52.256;8.874;2024-03-17T07:26:50;11.50;;;5.57;;
3733;SDS011;1882;52.256;8.874;2024-03-17T07:29:16;13.40;;;6.47;;
3733;SDS011;1882;52.256;8.874;2024-03-17T07:31:44;15.83;;;6.33;;
3733;SDS011;1882;52.256;8.874;2024-03-17T07:34:10;14.40;;;5.70;;
3733;SDS011;1882;52.256;8.874;2024-03-17T07:36:36;15.00;;;7.03;;
3733;SDS011;1882;52.256;8.874;2024-03-17T07:39:02;10.43;;;5.80;;
3733;SDS011;1882;52.256;8.874;2024-03-17T07:41:28;12.03;;;5.63;;
3733;SDS011;1882;52.256;8.874;2024-03-17T07:43:54;8.57;;;5.70;;
3733;SDS011;1882;52.256;8.874;2024-03-17T07:46:20;12.50;;;5.87;;
3733;SDS011;1882;52.256;8.874;2024-03-17T07:48:46;10.70;;;5.87;;
3733;SDS011;1882;52.256;8.874;2024-03-17T07:51:13;11.77;;;5.97;;
3733;SDS011;1882;52.256;8.874;2024-03-17T07:53:40;14.87;;;6.20;;
3733;SDS011;1882;52.256;8.874;2024-03-17T07:56:08;9.43;;;5.30;;
3733;SDS011;1882;52.256;8.874;2024-03-17T07:58:35;15.83;;;5.53;;
3733;SDS011;1882;52.256;8.874;2024-03-17T08:01:04;12.90;;;5.77;;
3733;SDS011;1882;52.256;8.874;2024-03-17T08:03:35;11.93;;;6.00;;
3733;SDS011;1882;52.256;8.874;2024-03-17T08:06:03;12.60;;;4.93;;
3733;SDS011;1882;52.256;8.874;2024-03-17T08:08:31;7.20;;;4.90;;
3733;SDS011;1882;52.256;8.874;2024-03-17T08:10:58;10.43;;;5.43;;
3733;SDS011;1882;52.256;8.874;2024-03-17T08:13:24;10.97;;;5.50;;
3733;SDS011;1882;52.256;8.874;2024-03-17T08:15:57;13.13;;;6.50;;
3733;SDS011;1882;52.256;8.874;2024-03-17T08:18:25;12.00;;;5.87;;
3733;SDS011;1882;52.256;8.874;2024-03-17T08:20:52;16.80;;;8.40;;
3733;SDS011;1882;52.256;8.874;2024-03-17T08:23:19;22.30;;;11.57;;
3733;SDS011;1882;52.256;8.874;2024-03-17T08:25:56;20.10;;;10.00;;
3733;SDS011;1882;52.256;8.874;2024-03-17T08:28:23;8.37;;;5.87;;
3733;SDS011;1882;52.256;8.874;2024-03-17T08:33:19;13.20;;;6.40;;
3733;SDS011;1882;52.256;8.874;2024-03-17T08:36:00;11.80;;;5.80;;
3733;SDS011;1882;52.256;8.874;2024-03-17T08:38:32;12.43;;;6.17;;
3733;SDS011;1882;52.256;8.874;2024-03-17T08:41:03;11.23;;;5.80;;
3733;SDS011;1882;52.256;8.874;2024-03-17T08:43:30;10.70;;;5.80;;
3733;SDS011;1882;52.256;8.874;2024-03-17T08:48:25;15.00;;;5.80;;
3733;SDS011;1882;52.256;8.874;2024-03-17T08:50:52;11.87;;;6.37;;
3733;SDS011;1882;52.256;8.874;2024-03-17T08:53:19;12.43;;;6.67;;
3733;SDS011;1882;52.256;8.874;2024-03-17T08:55:45;9.27;;;5.70;;
3733;SDS011;1882;52.256;8.874;2024-03-17T08:58:11;10.23;;;6.17;;
3733;SDS011;1882;52.256;8.874;2024-03-17T09:00:37;13.30;;;6.77;;
3733;SDS011;1882;52.256;8.874;2024-03-17T09:03:03;12.20;;;7.20;;
3733;SDS011;1882;52.256;8.874;2024-03-17T09:05:32;12.53;;;7.10;;
3733;SDS011;1882;52.256;8.874;2024-03-17T09:07:58;19.33;;;7.77;;
3733;SDS011;1882;52.256;8.874;2024-03-17T09:10:24;11.23;;;7.47;;
3733;SDS011;1882;52.256;8.874;2024-03-17T09:12:50;15.00;;;8.10;;
3733;SDS011;1882;52.256;8.874;2024-03-17T09:15:16;12.00;;;7.53;;
3733;SDS011;1882;52.256;8.874;2024-03-17T09:17:42;17.77;;;7.80;;
3733;SDS011;1882;52.256;8.874;2024-03-17T09:20:11;16.03;;;8.27;;
3733;SDS011;1882;52.256;8.874;2024-03-17T09:22:38;13.43;;;9.30;;
3733;SDS011;1882;52.256;8.874;2024-03-17T09:25:07;17.20;;;10.20;;
3733;SDS011;1882;52.256;8.874;2024-03-17T09:27:34;23.07;;;10.17;;
3733;SDS011;1882;52.256;8.874;2024-03-17T09:30:05;16.73;;;8.97;;
3733;SDS011;1882;52.256;8.874;2024-03-17T09:32:37;16.00;;;9.70;;
3733;SDS011;1882;52.256;8.874;2024-03-17T09:35:04;16.67;;;9.30;;
3733;SDS011;1882;52.256;8.874;2024-03-17T09:37:30;14.07;;;8.23;;
3733;SDS011;1882;52.256;8.874;2024-03-17T09:40:00;15.80;;;9.27;;
3733;SDS011;1882;52.256;8.874;2024-03-17T09:42:26;19.90;;;9.80;;
3733;SDS011;1882;52.256;8.874;2024-03-17T09:44:55;19.77;;;10.37;;
3733;SDS011;1882;52.256;8.874;2024-03-17T09:47:22;15.70;;;9.83;;
3733;SDS011;1882;52.256;8.874;2024-03-17T09:49:49;16.80;;;9.83;;
3733;SDS011;1882;52.256;8.874;2024-03-17T09:52:25;16.50;;;8.87;;
3733;SDS011;1882;52.256;8.874;2024-03-17T09:55:01;13.73;;;8.37;;
3733;SDS011;1882;52.256;8.874;2024-03-17T09:57:38;13.53;;;8.37;;
3733;SDS011;1882;52.256;8.874;2024-03-17T10:00:10;19.10;;;8.70;;
3733;SDS011;1882;52.256;8.874;2024-03-17T10:02:43;16.50;;;10.10;;
3733;SDS011;1882;52.256;8.874;2024-03-17T10:07:46;20.60;;;10.20;;
3733;SDS011;1882;52.256;8.874;2024-03-17T10:10:14;16.03;;;9.27;;
3733;SDS011;1882;52.256;8.874;2024-03-17T10:12:41;15.37;;;9.47;;
3733;SDS011;1882;52.256;8.874;2024-03-17T10:15:10;18.07;;;11.10;;
3733;SDS011;1882;52.256;8.874;2024-03-17T10:17:37;22.00;;;10.10;;
3733;SDS011;1882;52.256;8.874;2024-03-17T10:20:14;15.27;;;9.90;;
3733;SDS011;1882;52.256;8.874;2024-03-17T10:23:02;18.23;;;10.73;;
3733;SDS011;1882;52.256;8.874;2024-03-17T10:25:29;20.50;;;10.43;;
3733;SDS011;1882;52.256;8.874;2024-03-17T10:27:57;16.90;;;10.13;;
3733;SDS011;1882;52.256;8.874;2024-03-17T10:30:24;17.73;;;10.60;;
3733;SDS011;1882;52.256;8.874;2024-03-17T10:32:52;16.83;;;10.80;;
3733;SDS011;1882;52.256;8.874;2024-03-17T10:38:01;15.10;;;9.57;;
3733;SDS011;1882;52.256;8.874;2024-03-17T10:40:32;17.73;;;10.60;;
3733;SDS011;1882;52.256;8.874;2024-03-17T10:43:01;14.40;;;9.80;;
3733;SDS011;1882;52.256;8.874;2024-03-17T10:45:28;18.83;;;10.57;;
3733;SDS011;1882;52.256;8.874;2024-03-17T10:48:01;15.70;;;10.90;;
3733;SDS011;1882;52.256;8.874;2024-03-17T10:50:32;19.27;;;11.47;;
3733;SDS011;1882;52.256;8.874;2024-03-17T10:53:02;23.27;;;12.67;;
3733;SDS011;1882;52.256;8.874;2024-03-17T10:55:31;19.87;;;12.63;;
3733;SDS011;1882;52.256;8.874;2024-03-17T10:58:02;18.23;;;12.30;;
3733;SDS011;1882;52.256;8.874;2024-03-17T11:00:34;20.03;;;13.00;;
3733;SDS011;1882;52.256;8.874;2024-03-17T11:03:01;21.40;;;12.40;;
3733;SDS011;1882;52.256;8.874;2024-03-17T11:05:28;17.10;;;10.97;;
3733;SDS011;1882;52.256;8.874;2024-03-17T11:07:55;17.30;;;11.00;;
3733;SDS011;1882;52.256;8.874;2024-03-17T11:10:32;15.47;;;11.47;;
3733;SDS011;1882;52.256;8.874;2024-03-17T11:13:00;23.40;;;12.17;;
3733;SDS011;1882;52.256;8.874;2024-03-17T11:20:37;17.83;;;11.60;;
3733;SDS011;1882;52.256;8.874;2024-03-17T11:23:28;16.83;;;10.90;;
3733;SDS011;1882;52.256;8.874;2024-03-17T11:25:55;14.60;;;10.17;;
3733;SDS011;1882;52.256;8.874;2024-03-17T11:28:56;17.93;;;11.10;;
3733;SDS011;1882;52.256;8.874;2024-03-17T11:33:58;17.20;;;10.97;;
3733;SDS011;1882;52.256;8.874;2024-03-17T11:51:49;14.83;;;10.10;;
3733;SDS011;1882;52.256;8.874;2024-03-17T11:54:23;16.50;;;10.47;;
3733;SDS011;1882;52.256;8.874;2024-03-17T11:56:53;12.60;;;9.60;;
3733;SDS011;1882;52.256;8.874;2024-03-17T11:59:20;14.80;;;9.57;;
3733;SDS011;1882;52.256;8.874;2024-03-17T12:01:48;17.93;;;9.73;;
3733;SDS011;1882;52.256;8.874;2024-03-17T12:04:15;15.10;;;10.03;;
3733;SDS011;1882;52.256;8.874;2024-03-17T12:06:47;15.57;;;10.27;;
3733;SDS011;1882;52.256;8.874;2024-03-17T12:11:51;15.97;;;9.90;;
3733;SDS011;1882;52.256;8.874;2024-03-17T12:14:24;16.60;;;10.00;;
3733;SDS011;1882;52.256;8.874;2024-03-17T12:16:57;12.10;;;8.90;;
3733;SDS011;1882;52.256;8.874;2024-03-17T12:19:25;13.07;;;8.90;;
3733;SDS011;1882;52.256;8.874;2024-03-17T12:21:52;13.43;;;8.60;;
3733;SDS011;1882;52.256;8.874;2024-03-17T12:24:21;17.40;;;8.90;;
3733;SDS011;1882;52.256;8.874;2024-03-17T12:26:48;13.17;;;9.30;;
3733;SDS011;1882;52.256;8.874;2024-03-17T12:29:22;18.87;;;9.50;;
3733;SDS011;1882;52.256;8.874;2024-03-17T12:31:50;13.27;;;9.23;;
3733;SDS011;1882;52.256;8.874;2024-03-17T12:34:17;16.50;;;9.87;;
3733;SDS011;1882;52.256;8.874;2024-03-17T12:36:44;17.87;;;10.13;;
3733;SDS011;1882;52.256;8.874;2024-03-17T12:39:18;14.67;;;9.77;;
3733;SDS011;1882;52.256;8.874;2024-03-17T12:44:27;15.23;;;10.07;;
3733;SDS011;1882;52.256;8.874;2024-03-17T12:46:59;16.50;;;10.67;;
3733;SDS011;1882;52.256;8.874;2024-03-17T12:49:30;17.33;;;10.27;;
3733;SDS011;1882;52.256;8.874;2024-03-17T12:51:58;14.70;;;9.70;;
3733;SDS011;1882;52.256;8.874;2024-03-17T12:54:25;16.87;;;10.90;;
3733;SDS011;1882;52.256;8.874;2024-03-17T12:56:52;13.90;;;9.50;;
3733;SDS011;1882;52.256;8.874;2024-03-17T12:59:51;15.70;;;10.07;;
3733;SDS011;1882;52.256;8.874;2024-03-17T13:02:40;17.57;;;10.40;;
3733;SDS011;1882;52.256;8.874;2024-03-17T13:05:11;13.60;;;9.50;;
3733;SDS011;1882;52.256;8.874;2024-03-17T13:07:42;16.27;;;10.60;;
3733;SDS011;1882;52.256;8.874;2024-03-17T13:10:12;17.23;;;10.30;;
3733;SDS011;1882;52.256;8.874;2024-03-17T13:12:40;15.57;;;9.80;;
3733;SDS011;1882;52.256;8.874;2024-03-17T13:15:08;14.20;;;9.40;;
3733;SDS011;1882;52.256;8.874;2024-03-17T13:17:38;15.60;;;9.93;;
3733;SDS011;1882;52.256;8.874;2024-03-17T13:20:05;13.87;;;9.33;;
3733;SDS011;1882;52.256;8.874;2024-03-17T13:22:36;14.53;;;9.50;;
3733;SDS011;1882;52.256;8.874;2024-03-17T13:25:05;17.40;;;9.40;;
3733;SDS011;1882;52.256;8.874;2024-03-17T13:27:38;16.80;;;10.20;;
3733;SDS011;1882;52.256;8.874;2024-03-17T13:30:04;12.97;;;9.40;;
3733;SDS011;1882;52.256;8.874;2024-03-17T13:32:31;14.60;;;10.00;;
3733;SDS011;1882;52.256;8.874;2024-03-17T13:34:57;14.50;;;10.47;;
3733;SDS011;1882;52.256;8.874;2024-03-17T13:37:23;14.03;;;10.20;;
3733;SDS011;1882;52.256;8.874;2024-03-17T13:39:49;16.40;;;10.53;;
3733;SDS011;1882;52.256;8.874;2024-03-17T13:42:15;15.10;;;10.60;;
3733;SDS011;1882;52.256;8.874;2024-03-17T13:44:41;17.43;;;9.70;;
3733;SDS011;1882;52.256;8.874;2024-03-17T13:47:07;14.00;;;9.30;;
3733;SDS011;1882;52.256;8.874;2024-03-17T13:49:34;13.63;;;9.60;;
3733;SDS011;1882;52.256;8.874;2024-03-17T13:52:00;14.00;;;9.43;;
3733;SDS011;1882;52.256;8.874;2024-03-17T13:54:26;15.10;;;9.30;;
3733;SDS011;1882;52.256;8.874;2024-03-17T13:56:52;14.00;;;9.93;;
3733;SDS011;1882;52.256;8.874;2024-03-17T13:59:19;14.30;;;10.07;;
3733;SDS011;1882;52.256;8.874;2024-03-17T14:01:45;16.10;;;9.40;;
3733;SDS011;1882;52.256;8.874;2024-03-17T14:04:15;13.27;;;9.57;;
3733;SDS011;1882;52.256;8.874;2024-03-17T14:06:45;14.93;;;9.50;;
3733;SDS011;1882;52.256;8.874;2024-03-17T14:09:14;13.10;;;9.10;;
3733;SDS011;1882;52.256;8.874;2024-03-17T14:11:43;14.73;;;9.30;;
3733;SDS011;1882;52.256;8.874;2024-03-17T14:14:10;12.47;;;9.40;;
3733;SDS011;1882;52.256;8.874;2024-03-17T14:16:36;13.97;;;9.53;;
3733;SDS011;1882;52.256;8.874;2024-03-17T14:19:02;13.10;;;9.00;;
3733;SDS011;1882;52.256;8.874;2024-03-17T14:21:28;13.47;;;9.63;;
3733;SDS011;1882;52.256;8.874;2024-03-17T14:23:54;11.20;;;9.07;;
3733;SDS011;1882;52.256;8.874;2024-03-17T14:26:21;13.50;;;9.73;;
3733;SDS011;1882;52.256;8.874;2024-03-17T14:28:48;12.87;;;9.57;;
3733;SDS011;1882;52.256;8.874;2024-03-17T14:31:16;10.63;;;8.90;;
3733;SDS011;1882;52.256;8.874;2024-03-17T14:33:43;12.70;;;9.07;;
3733;SDS011;1882;52.256;8.874;2024-03-17T14:36:09;12.93;;;9.90;;
3733;SDS011;1882;52.256;8.874;2024-03-17T14:38:35;14.50;;;9.80;;
3733;SDS011;1882;52.256;8.874;2024-03-17T14:41:01;14.93;;;9.00;;
3733;SDS011;1882;52.256;8.874;2024-03-17T14:43:30;13.73;;;9.43;;
3733;SDS011;1882;52.256;8.874;2024-03-17T14:45:56;12.90;;;9.23;;
3733;SDS011;1882;52.256;8.874;2024-03-17T14:48:22;14.20;;;9.80;;
3733;SDS011;1882;52.256;8.874;2024-03-17T14:50:48;15.67;;;9.80;;
3733;SDS011;1882;52.256;8.874;2024-03-17T14:53:14;11.20;;;8.57;;
3733;SDS011;1882;52.256;8.874;2024-03-17T14:55:42;13.23;;;9.53;;
3733;SDS011;1882;52.256;8.874;2024-03-17T14:58:09;18.57;;;9.57;;
3733;SDS011;1882;52.256;8.874;2024-03-17T15:00:35;11.80;;;9.00;;
3733;SDS011;1882;52.256;8.874;2024-03-17T15:03:01;12.27;;;9.40;;
3733;SDS011;1882;52.256;8.874;2024-03-17T15:05:27;14.87;;;10.60;;
3733;SDS011;1882;52.256;8.874;2024-03-17T15:07:53;13.70;;;9.93;;
3733;SDS011;1882;52.256;8.874;2024-03-17T15:10:19;18.10;;;10.30;;
3733;SDS011;1882;52.256;8.874;2024-03-17T15:12:48;16.33;;;10.13;;
3733;SDS011;1882;52.256;8.874;2024-03-17T15:15:15;12.30;;;9.43;;
3733;SDS011;1882;52.256;8.874;2024-03-17T15:17:41;14.97;;;9.80;;
3733;SDS011;1882;52.256;8.874;2024-03-17T15:20:10;12.70;;;9.43;;
3733;SDS011;1882;52.256;8.874;2024-03-17T15:22:43;14.07;;;9.60;;
3733;SDS011;1882;52.256;8.874;2024-03-17T15:25:14;14.50;;;9.83;;
3733;SDS011;1882;52.256;8.874;2024-03-17T15:27:41;15.53;;;10.13;;
3733;SDS011;1882;52.256;8.874;2024-03-17T15:32:43;15.20;;;9.50;;
3733;SDS011;1882;52.256;8.874;2024-03-17T15:35:12;14.13;;;9.80;;
3733;SDS011;1882;52.256;8.874;2024-03-17T15:37:39;15.47;;;10.13;;
3733;SDS011;1882;52.256;8.874;2024-03-17T15:40:06;13.77;;;9.50;;
3733;SDS011;1882;52.256;8.874;2024-03-17T15:42:33;12.70;;;9.33;;
3733;SDS011;1882;52.256;8.874;2024-03-17T15:44:59;13.10;;;9.13;;
3733;SDS011;1882;52.256;8.874;2024-03-17T15:47:25;12.70;;;9.23;;